createdAt,value
2023-04-10T00:02:46.500Z,1004.29
2023-04-10T00:08:31.111Z,1004.23
2023-04-10T00:14:15.166Z,1004.24
2023-04-10T00:19:59.995Z,1004.16
2023-04-10T00:25:44.009Z,1004.2
2023-04-10T00:31:28.115Z,1004.25
2023-04-10T00:37:12.349Z,1004.2
2023-04-10T00:42:56.354Z,1004.12
2023-04-10T00:48:40.342Z,1003.93
2023-04-10T00:54:24.337Z,1003.94
2023-04-10T01:00:09.252Z,1003.86
2023-04-10T01:05:58.079Z,1003.88
2023-04-10T01:11:48.864Z,1003.87
2023-04-10T01:17:36.513Z,1003.8
2023-04-10T01:23:32.009Z,1003.69
2023-04-10T01:29:17.930Z,1003.58
2023-04-10T01:35:06.998Z,1003.56
2023-04-10T01:40:53.456Z,1003.47
2023-04-10T01:46:39.250Z,1003.29
2023-04-10T01:52:24.565Z,1003.18
2023-04-10T01:58:08.563Z,1003.13
2023-04-10T02:03:52.939Z,1003.01
2023-04-10T02:09:44.696Z,1002.95
2023-04-10T02:15:32.015Z,1002.94
2023-04-10T02:21:16.300Z,1002.83
2023-04-10T02:27:00.521Z,1002.84
2023-04-10T02:32:45.772Z,1002.82
2023-04-10T02:38:30.002Z,1002.86
2023-04-10T02:44:14.165Z,1002.88
2023-04-10T02:49:58.245Z,1002.76
2023-04-10T02:55:42.632Z,1002.7
2023-04-10T03:01:27.109Z,1002.61
2023-04-10T03:07:11.165Z,1002.59
2023-04-10T03:12:55.035Z,1002.61
2023-04-10T03:18:39.034Z,1002.67
2023-04-10T03:24:23.062Z,1002.65
2023-04-10T03:30:08.012Z,1002.7
2023-04-10T03:35:51.989Z,1002.63
2023-04-10T03:41:36.068Z,1002.54
2023-04-10T03:47:20.202Z,1002.5
2023-04-10T03:53:04.279Z,1002.36
2023-04-10T03:58:48.042Z,1002.26
2023-04-10T04:04:32.336Z,1002.17
2023-04-10T04:10:16.842Z,1002.12
2023-04-10T04:16:00.625Z,1002.12
2023-04-10T04:21:44.504Z,1002.11
2023-04-10T04:27:28.494Z,1002.04
2023-04-10T04:33:12.514Z,1001.96
2023-04-10T04:38:56.223Z,1002.01
2023-04-10T04:44:40.335Z,1002
2023-04-10T04:50:24.293Z,1002.05
2023-04-10T04:56:08.795Z,1002.02
2023-04-10T05:01:53.059Z,1002.01
2023-04-10T05:07:37.256Z,1001.96
2023-04-10T05:13:21.223Z,1001.9
2023-04-10T05:19:05.363Z,1001.79
2023-04-10T05:24:49.482Z,1001.68
2023-04-10T05:30:33.595Z,1001.7
2023-04-10T05:36:17.697Z,1001.72
2023-04-10T05:42:02.848Z,1001.84
2023-04-10T05:47:47.043Z,1001.98
2023-04-10T05:53:33.018Z,1001.98
2023-04-10T05:59:17.102Z,1001.94
2023-04-10T06:05:02.222Z,1001.96
2023-04-10T06:10:46.436Z,1001.88
2023-04-10T06:16:30.573Z,1001.99
2023-04-10T06:22:15.206Z,1001.96
2023-04-10T06:27:59.386Z,1001.85
2023-04-10T06:33:43.472Z,1001.93
2023-04-10T06:39:27.677Z,1001.87
2023-04-10T06:45:12.280Z,1001.84
2023-04-10T06:50:56.565Z,1001.72
2023-04-10T06:56:40.754Z,1001.66
2023-04-10T07:02:26.120Z,1001.57
2023-04-10T07:08:10.679Z,1001.5
2023-04-10T07:13:55.066Z,1001.37
2023-04-10T07:19:39.041Z,1001.28
2023-04-10T07:25:23.273Z,1001.24
2023-04-10T07:31:07.623Z,1001.09
2023-04-10T07:36:51.718Z,1001.07
2023-04-10T07:42:36.184Z,1001.01
2023-04-10T07:48:20.567Z,1000.91
2023-04-10T07:54:04.850Z,1000.78
2023-04-10T07:59:48.907Z,1000.73
2023-04-10T08:05:33.105Z,1000.76
2023-04-10T08:11:28.021Z,1000.68
2023-04-10T08:17:12.307Z,1000.7
2023-04-10T08:23:06.222Z,1000.71
2023-04-10T08:28:59.632Z,1000.55
2023-04-10T08:34:43.849Z,1000.57
2023-04-10T08:40:28.748Z,1000.53
2023-04-10T08:46:12.582Z,1000.45
2023-04-10T08:51:57.605Z,1000.45
2023-04-10T08:57:48.138Z,1000.36
2023-04-10T09:03:43.183Z,1000.24
2023-04-10T09:09:27.707Z,1000.16
2023-04-10T09:15:12.757Z,1000.22
2023-04-10T09:21:01.715Z,1000.13
2023-04-10T09:26:45.766Z,1000.07
2023-04-10T09:32:42.553Z,1000.19
2023-04-10T09:38:26.525Z,1000.13
2023-04-10T09:44:11.343Z,999.97
2023-04-10T09:49:55.924Z,999.99
2023-04-10T09:55:40.446Z,1000.03
2023-04-10T10:01:25.538Z,999.98
2023-04-10T10:07:09.803Z,999.89
2023-04-10T10:12:57.214Z,999.77
2023-04-10T10:18:45.128Z,999.65
2023-04-10T10:24:29.543Z,999.45
2023-04-10T10:30:29.218Z,999.37
2023-04-10T10:36:15.025Z,999.32
2023-04-10T10:42:01.331Z,999.26
2023-04-10T10:47:47.335Z,999.13
2023-04-10T10:53:41.124Z,999.09
2023-04-10T10:59:39.533Z,999.01
2023-04-10T11:05:34.285Z,998.94
2023-04-10T11:11:19.236Z,998.83
2023-04-10T11:17:03.382Z,998.66
2023-04-10T11:22:59.001Z,998.49
2023-04-10T11:28:43.259Z,998.58
2023-04-10T11:34:27.654Z,998.54
2023-04-10T11:40:13.094Z,998.38
2023-04-10T11:46:04.763Z,998.35
2023-04-10T11:51:51.296Z,998.29
2023-04-10T11:57:39.139Z,998.2
2023-04-10T12:03:28.464Z,998.07
2023-04-10T12:09:17.823Z,997.93
2023-04-10T12:15:01.691Z,997.95
2023-04-10T12:20:45.755Z,997.83
2023-04-10T12:26:29.693Z,997.91
2023-04-10T12:32:13.829Z,997.84
2023-04-10T12:37:58.767Z,997.85
2023-04-10T12:43:43.631Z,997.78
2023-04-10T12:49:28.782Z,997.8
2023-04-10T12:55:15.250Z,997.57
2023-04-10T13:01:03.650Z,997.39
2023-04-10T13:06:49.394Z,997.18
2023-04-10T13:12:34.985Z,997.26
2023-04-10T13:18:19.335Z,997.25
2023-04-10T13:24:03.728Z,996.95
2023-04-10T13:29:48.001Z,996.9
2023-04-10T13:35:32.171Z,996.83
2023-04-10T13:41:16.587Z,996.67
2023-04-10T13:47:00.811Z,996.5
2023-04-10T13:52:45.394Z,996.4
2023-04-10T13:58:29.718Z,996.33
2023-04-10T14:04:14.295Z,996.23
2023-04-10T14:09:58.788Z,996.2
2023-04-10T14:15:46.653Z,996.18
2023-04-10T14:21:30.791Z,996.07
2023-04-10T14:27:15.982Z,996.1
2023-04-10T14:33:00.562Z,996.15
2023-04-10T14:38:44.905Z,996.18
2023-04-10T14:44:29.490Z,995.92
2023-04-10T14:50:14.134Z,996.1
2023-04-10T14:55:58.395Z,996.08
2023-04-10T15:01:42.815Z,996.27
2023-04-10T15:07:27.373Z,996.18
2023-04-10T15:13:11.392Z,996.22
2023-04-10T15:18:55.339Z,996.11
2023-04-10T15:24:50.353Z,996.23
2023-04-10T15:30:34.253Z,996.17
2023-04-10T15:36:18.374Z,996.02
2023-04-10T15:42:02.502Z,996.16
2023-04-10T15:47:46.785Z,996.09
2023-04-10T15:53:31.000Z,995.95
2023-04-10T15:59:15.061Z,995.86
2023-04-10T16:04:59.263Z,995.7
2023-04-10T16:10:43.660Z,995.63
2023-04-10T16:16:27.975Z,995.61
2023-04-10T16:22:12.091Z,995.62
2023-04-10T16:27:56.156Z,995.64
2023-04-10T16:33:40.335Z,995.85
2023-04-10T16:39:24.325Z,995.87
2023-04-10T16:45:09.129Z,995.98
2023-04-10T16:50:53.177Z,996.21
2023-04-10T16:56:37.323Z,996.2
2023-04-10T17:02:21.401Z,996.2
2023-04-10T17:08:05.792Z,996.24
2023-04-10T17:13:49.886Z,996.39
2023-04-10T17:19:33.925Z,996.33
2023-04-10T17:25:18.866Z,996.24
2023-04-10T17:31:07.101Z,996.28
2023-04-10T17:36:51.166Z,996.08
2023-04-10T17:42:35.126Z,996.12
2023-04-10T17:48:19.469Z,996.01
2023-04-10T17:54:04.086Z,995.99
2023-04-10T17:59:48.318Z,995.82
2023-04-10T18:05:32.701Z,995.93
2023-04-10T18:11:17.846Z,995.8
2023-04-10T18:17:02.143Z,995.9
2023-04-10T18:22:46.606Z,996.05
2023-04-10T18:28:30.756Z,995.96
2023-04-10T18:34:15.247Z,995.82
2023-04-10T18:40:13.766Z,995.72
2023-04-10T18:45:58.835Z,995.73
2023-04-10T18:51:42.953Z,995.87
2023-04-10T18:57:26.915Z,995.88
2023-04-10T19:03:11.313Z,995.55
2023-04-10T19:08:55.818Z,995.21
2023-04-10T19:14:40.270Z,995.48
2023-04-10T19:20:49.524Z,995.57
2023-04-10T19:26:28.832Z,995.47
2023-04-10T19:32:14.037Z,995.53
2023-04-10T19:38:01.082Z,995.49
2023-04-10T19:43:45.287Z,995.61
2023-04-10T19:49:34.265Z,995.55
2023-04-10T19:55:20.250Z,995.51
2023-04-10T20:01:07.063Z,995.42
2023-04-10T20:06:51.339Z,995.5
2023-04-10T20:12:35.460Z,995.63
2023-04-10T20:18:19.721Z,995.44
2023-04-10T20:24:04.105Z,995.49
2023-04-10T20:29:48.214Z,995.38
2023-04-10T20:35:32.329Z,995.23
2023-04-10T20:41:16.697Z,995.29
2023-04-10T20:47:00.755Z,995.22
2023-04-10T20:52:44.955Z,995.04
2023-04-10T20:58:28.974Z,995.19
2023-04-10T21:04:12.914Z,995.18
2023-04-10T21:09:57.079Z,994.96
2023-04-10T21:15:43.492Z,995.02
2023-04-10T21:21:27.853Z,995.26
2023-04-10T21:27:11.834Z,995.47
2023-04-10T21:32:56.039Z,995.41
2023-04-10T21:38:41.373Z,995.39
2023-04-10T21:44:25.249Z,995.29
2023-04-10T21:50:09.986Z,995.34
2023-04-10T21:55:53.965Z,995.37
2023-04-10T22:01:38.581Z,995.31
2023-04-10T22:07:22.955Z,995.43
2023-04-10T22:13:08.820Z,995.43
2023-04-10T22:19:05.266Z,995.35
2023-04-10T22:24:49.567Z,995.28
2023-04-10T22:30:34.319Z,995.34
2023-04-10T22:36:18.509Z,995.31
2023-04-10T22:42:02.291Z,995.3
2023-04-10T22:47:46.345Z,995.39
2023-04-10T22:53:30.408Z,995.37
2023-04-10T22:59:14.728Z,995.38
2023-04-10T23:04:58.832Z,995.72
2023-04-10T23:10:43.063Z,995.65
2023-04-10T23:16:27.318Z,995.69
2023-04-10T23:22:11.615Z,995.74
2023-04-10T23:27:55.979Z,995.72
2023-04-10T23:33:40.141Z,995.85
2023-04-10T23:39:24.088Z,995.66
2023-04-10T23:45:08.646Z,995.71
2023-04-10T23:50:52.754Z,995.83
2023-04-10T23:56:36.834Z,995.78
